sensor_id;sensor_type;location;lat;lon;timestamp;P1;durP1;ratioP1;P2;durP2;ratioP2
20369;SDS011;10344;47.592;9.600;2022-10-16T07:43:00;1.52;;;1.30;;
20369;SDS011;10344;47.592;9.600;2022-10-16T07:49:22;1.33;;;1.20;;
20369;SDS011;10344;47.592;9.600;2022-10-16T08:00:45;3.20;;;1.73;;
20369;SDS011;10344;47.592;9.600;2022-10-16T08:22:52;3.05;;;1.58;;
20369;SDS011;10344;47.592;9.600;2022-10-16T08:25:22;1.77;;;1.35;;
20369;SDS011;10344;47.592;9.600;2022-10-16T08:27:48;1.48;;;1.30;;
20369;SDS011;10344;47.592;9.600;2022-10-16T08:30:14;1.42;;;1.30;;
20369;SDS011;10344;47.592;9.600;2022-10-16T08:32:41;1.90;;;1.40;;
20369;SDS011;10344;47.592;9.600;2022-10-16T08:35:13;1.50;;;1.13;;
20369;SDS011;10344;47.592;9.600;2022-10-16T08:37:56;1.70;;;1.48;;
20369;SDS011;10344;47.592;9.600;2022-10-16T08:40:35;2.17;;;1.50;;
20369;SDS011;10344;47.592;9.600;2022-10-16T08:43:20;1.70;;;1.10;;
20369;SDS011;10344;47.592;9.600;2022-10-16T08:48:57;2.03;;;1.50;;
20369;SDS011;10344;47.592;9.600;2022-10-16T08:51:28;2.10;;;1.30;;
20369;SDS011;10344;47.592;9.600;2022-10-16T08:56:23;1.38;;;1.27;;
20369;SDS011;10344;47.592;9.600;2022-10-16T08:58:52;2.15;;;1.35;;
20369;SDS011;10344;47.592;9.600;2022-10-16T09:01:19;2.30;;;1.65;;
20369;SDS011;10344;47.592;9.600;2022-10-16T09:09:20;1.55;;;1.40;;
20369;SDS011;10344;47.592;9.600;2022-10-16T09:17:53;2.80;;;1.70;;
20369;SDS011;10344;47.592;9.600;2022-10-16T09:23:43;2.00;;;1.65;;
20369;SDS011;10344;47.592;9.600;2022-10-16T09:26:09;1.95;;;1.50;;
20369;SDS011;10344;47.592;9.600;2022-10-16T09:28:38;2.30;;;1.58;;
20369;SDS011;10344;47.592;9.600;2022-10-16T09:31:04;2.50;;;1.50;;
20369;SDS011;10344;47.592;9.600;2022-10-16T09:33:32;2.07;;;1.80;;
20369;SDS011;10344;47.592;9.600;2022-10-16T09:36:02;2.10;;;1.60;;
20369;SDS011;10344;47.592;9.600;2022-10-16T09:38:30;1.80;;;1.57;;
20369;SDS011;10344;47.592;9.600;2022-10-16T09:41:02;3.03;;;1.60;;
20369;SDS011;10344;47.592;9.600;2022-10-16T09:43:49;2.42;;;1.70;;
20369;SDS011;10344;47.592;9.600;2022-10-16T09:48:56;3.70;;;1.70;;
20369;SDS011;10344;47.592;9.600;2022-10-16T09:56:37;2.08;;;1.70;;
20369;SDS011;10344;47.592;9.600;2022-10-16T09:59:16;2.80;;;1.65;;
20369;SDS011;10344;47.592;9.600;2022-10-16T10:04:13;2.33;;;1.50;;
20369;SDS011;10344;47.592;9.600;2022-10-16T10:06:43;1.98;;;1.60;;
20369;SDS011;10344;47.592;9.600;2022-10-16T10:11:46;2.78;;;1.40;;
20369;SDS011;10344;47.592;9.600;2022-10-16T10:16:45;2.90;;;1.50;;
20369;SDS011;10344;47.592;9.600;2022-10-16T10:19:37;2.38;;;1.60;;
20369;SDS011;10344;47.592;9.600;2022-10-16T10:22:21;3.22;;;1.65;;
20369;SDS011;10344;47.592;9.600;2022-10-16T10:24:57;5.65;;;1.70;;
20369;SDS011;10344;47.592;9.600;2022-10-16T10:30:22;2.42;;;1.45;;
20369;SDS011;10344;47.592;9.600;2022-10-16T10:38:20;4.30;;;1.60;;
20369;SDS011;10344;47.592;9.600;2022-10-16T10:41:18;1.65;;;1.50;;
20369;SDS011;10344;47.592;9.600;2022-10-16T10:46:35;3.58;;;1.70;;
20369;SDS011;10344;47.592;9.600;2022-10-16T11:05:41;2.53;;;1.60;;
20369;SDS011;10344;47.592;9.600;2022-10-16T11:08:12;2.30;;;1.70;;
20369;SDS011;10344;47.592;9.600;2022-10-16T11:10:46;4.15;;;1.90;;
20369;SDS011;10344;47.592;9.600;2022-10-16T11:13:28;6.15;;;2.15;;
20369;SDS011;10344;47.592;9.600;2022-10-16T11:16:29;2.83;;;1.85;;
20369;SDS011;10344;47.592;9.600;2022-10-16T11:19:03;2.75;;;1.70;;
20369;SDS011;10344;47.592;9.600;2022-10-16T11:21:47;2.35;;;1.48;;
20369;SDS011;10344;47.592;9.600;2022-10-16T11:24:21;1.92;;;1.60;;
20369;SDS011;10344;47.592;9.600;2022-10-16T11:26:53;3.78;;;1.92;;
20369;SDS011;10344;47.592;9.600;2022-10-16T11:29:23;3.10;;;1.70;;
20369;SDS011;10344;47.592;9.600;2022-10-16T11:31:55;2.42;;;1.70;;
20369;SDS011;10344;47.592;9.600;2022-10-16T11:34:32;3.10;;;1.98;;
20369;SDS011;10344;47.592;9.600;2022-10-16T11:37:05;2.45;;;1.80;;
20369;SDS011;10344;47.592;9.600;2022-10-16T11:39:36;2.30;;;1.80;;
20369;SDS011;10344;47.592;9.600;2022-10-16T11:42:14;2.30;;;2.03;;
20369;SDS011;10344;47.592;9.600;2022-10-16T11:44:52;3.58;;;1.83;;
20369;SDS011;10344;47.592;9.600;2022-10-16T11:55:36;2.97;;;1.90;;
20369;SDS011;10344;47.592;9.600;2022-10-16T11:58:08;2.30;;;1.92;;
20369;SDS011;10344;47.592;9.600;2022-10-16T12:00:47;2.95;;;1.85;;
20369;SDS011;10344;47.592;9.600;2022-10-16T12:08:26;1.98;;;1.58;;
20369;SDS011;10344;47.592;9.600;2022-10-16T12:10:53;2.50;;;1.70;;
20369;SDS011;10344;47.592;9.600;2022-10-16T12:13:36;2.42;;;1.70;;
20369;SDS011;10344;47.592;9.600;2022-10-16T12:18:44;1.92;;;1.65;;
20369;SDS011;10344;47.592;9.600;2022-10-16T12:21:11;1.65;;;1.52;;
20369;SDS011;10344;47.592;9.600;2022-10-16T12:23:50;1.67;;;1.50;;
20369;SDS011;10344;47.592;9.600;2022-10-16T12:26:24;1.95;;;1.75;;
20369;SDS011;10344;47.592;9.600;2022-10-16T12:28:50;2.33;;;1.50;;
20369;SDS011;10344;47.592;9.600;2022-10-16T12:31:16;2.03;;;1.60;;
20369;SDS011;10344;47.592;9.600;2022-10-16T12:34:03;3.28;;;2.10;;
20369;SDS011;10344;47.592;9.600;2022-10-16T12:36:31;2.60;;;1.90;;
20369;SDS011;10344;47.592;9.600;2022-10-16T12:38:59;2.17;;;1.90;;
20369;SDS011;10344;47.592;9.600;2022-10-16T12:41:26;2.15;;;1.92;;
20369;SDS011;10344;47.592;9.600;2022-10-16T12:43:52;2.70;;;2.22;;
20369;SDS011;10344;47.592;9.600;2022-10-16T12:46:22;4.22;;;2.15;;
20369;SDS011;10344;47.592;9.600;2022-10-16T12:49:04;3.37;;;2.20;;
20369;SDS011;10344;47.592;9.600;2022-10-16T12:51:50;2.00;;;1.80;;
20369;SDS011;10344;47.592;9.600;2022-10-16T12:59:42;2.90;;;2.17;;
20369;SDS011;10344;47.592;9.600;2022-10-16T13:10:36;2.63;;;2.20;;
20369;SDS011;10344;47.592;9.600;2022-10-16T13:13:12;2.60;;;2.30;;
20369;SDS011;10344;47.592;9.600;2022-10-16T13:18:52;2.90;;;2.53;;
20369;SDS011;10344;47.592;9.600;2022-10-16T13:29:09;3.63;;;2.05;;
20369;SDS011;10344;47.592;9.600;2022-10-16T13:31:36;1.90;;;1.80;;
20369;SDS011;10344;47.592;9.600;2022-10-16T13:34:03;2.90;;;2.00;;
20369;SDS011;10344;47.592;9.600;2022-10-16T13:36:35;2.08;;;1.88;;
20369;SDS011;10344;47.592;9.600;2022-10-16T13:39:28;2.15;;;1.80;;
20369;SDS011;10344;47.592;9.600;2022-10-16T13:42:01;1.90;;;1.70;;
20369;SDS011;10344;47.592;9.600;2022-10-16T13:44:35;2.70;;;1.80;;
20369;SDS011;10344;47.592;9.600;2022-10-16T13:47:17;1.70;;;1.60;;
20369;SDS011;10344;47.592;9.600;2022-10-16T13:49:58;2.20;;;1.70;;
20369;SDS011;10344;47.592;9.600;2022-10-16T13:52:36;2.07;;;1.63;;
20369;SDS011;10344;47.592;9.600;2022-10-16T13:55:03;2.60;;;1.83;;
20369;SDS011;10344;47.592;9.600;2022-10-16T13:57:35;2.22;;;1.70;;
20369;SDS011;10344;47.592;9.600;2022-10-16T14:00:00;2.65;;;2.00;;
20369;SDS011;10344;47.592;9.600;2022-10-16T14:02:30;2.23;;;1.73;;
20369;SDS011;10344;47.592;9.600;2022-10-16T14:05:00;2.10;;;1.60;;
20369;SDS011;10344;47.592;9.600;2022-10-16T14:07:31;1.60;;;1.50;;
20369;SDS011;10344;47.592;9.600;2022-10-16T14:10:02;3.17;;;1.70;;
20369;SDS011;10344;47.592;9.600;2022-10-16T14:12:30;2.75;;;1.70;;
20369;SDS011;10344;47.592;9.600;2022-10-16T14:14:56;2.63;;;1.70;;
20369;SDS011;10344;47.592;9.600;2022-10-16T14:17:24;2.55;;;1.60;;
20369;SDS011;10344;47.592;9.600;2022-10-16T14:19:53;1.87;;;1.57;;
20369;SDS011;10344;47.592;9.600;2022-10-16T14:22:27;2.28;;;1.58;;
20369;SDS011;10344;47.592;9.600;2022-10-16T14:30:48;2.33;;;1.50;;
20369;SDS011;10344;47.592;9.600;2022-10-16T14:33:24;1.40;;;1.30;;
20369;SDS011;10344;47.592;9.600;2022-10-16T14:35:58;2.55;;;1.50;;
20369;SDS011;10344;47.592;9.600;2022-10-16T14:38:25;3.03;;;1.70;;
20369;SDS011;10344;47.592;9.600;2022-10-16T14:40:51;1.60;;;1.50;;
20369;SDS011;10344;47.592;9.600;2022-10-16T14:43:26;2.40;;;1.50;;
20369;SDS011;10344;47.592;9.600;2022-10-16T14:45:59;1.42;;;1.30;;
20369;SDS011;10344;47.592;9.600;2022-10-16T14:48:26;1.63;;;1.40;;
20369;SDS011;10344;47.592;9.600;2022-10-16T14:50:53;1.40;;;1.30;;
20369;SDS011;10344;47.592;9.600;2022-10-16T14:53:19;1.25;;;1.15;;
20369;SDS011;10344;47.592;9.600;2022-10-16T14:55:46;2.28;;;1.40;;
20369;SDS011;10344;47.592;9.600;2022-10-16T14:58:14;2.40;;;2.13;;
20369;SDS011;10344;47.592;9.600;2022-10-16T15:00:42;2.25;;;1.90;;
20369;SDS011;10344;47.592;9.600;2022-10-16T15:03:08;2.10;;;1.90;;
20369;SDS011;10344;47.592;9.600;2022-10-16T15:05:33;2.60;;;1.90;;
20369;SDS011;10344;47.592;9.600;2022-10-16T15:07:59;2.20;;;1.88;;
20369;SDS011;10344;47.592;9.600;2022-10-16T15:10:25;4.37;;;2.20;;
20369;SDS011;10344;47.592;9.600;2022-10-16T15:12:53;3.67;;;2.50;;
20369;SDS011;10344;47.592;9.600;2022-10-16T15:17:48;2.33;;;2.13;;
20369;SDS011;10344;47.592;9.600;2022-10-16T15:20:20;2.70;;;2.40;;
20369;SDS011;10344;47.592;9.600;2022-10-16T15:22:46;3.30;;;3.00;;
20369;SDS011;10344;47.592;9.600;2022-10-16T15:25:35;5.10;;;3.33;;
20369;SDS011;10344;47.592;9.600;2022-10-16T15:27:58;2.55;;;2.35;;
20369;SDS011;10344;47.592;9.600;2022-10-16T15:30:25;3.20;;;2.25;;
20369;SDS011;10344;47.592;9.600;2022-10-16T15:32:51;2.30;;;2.10;;
20369;SDS011;10344;47.592;9.600;2022-10-16T15:35:17;3.45;;;2.50;;
20369;SDS011;10344;47.592;9.600;2022-10-16T15:37:47;2.65;;;2.03;;
20369;SDS011;10344;47.592;9.600;2022-10-16T15:40:13;1.95;;;1.85;;
20369;SDS011;10344;47.592;9.600;2022-10-16T15:42:39;3.75;;;2.08;;
20369;SDS011;10344;47.592;9.600;2022-10-16T15:45:08;2.60;;;2.00;;
20369;SDS011;10344;47.592;9.600;2022-10-16T15:47:34;1.90;;;1.70;;
20369;SDS011;10344;47.592;9.600;2022-10-16T15:50:00;1.83;;;1.53;;
20369;SDS011;10344;47.592;9.600;2022-10-16T15:52:25;2.47;;;1.70;;
20369;SDS011;10344;47.592;9.600;2022-10-16T15:54:54;2.55;;;2.00;;
20369;SDS011;10344;47.592;9.600;2022-10-16T15:57:20;2.30;;;1.90;;
20369;SDS011;10344;47.592;9.600;2022-10-16T15:59:45;2.83;;;1.90;;
20369;SDS011;10344;47.592;9.600;2022-10-16T16:02:11;2.63;;;1.80;;
20369;SDS011;10344;47.592;9.600;2022-10-16T16:04:36;3.30;;;1.80;;
20369;SDS011;10344;47.592;9.600;2022-10-16T16:07:05;2.10;;;1.88;;
20369;SDS011;10344;47.592;9.600;2022-10-16T16:09:32;2.55;;;1.90;;
20369;SDS011;10344;47.592;9.600;2022-10-16T16:11:58;2.10;;;1.90;;
20369;SDS011;10344;47.592;9.600;2022-10-16T16:14:25;2.78;;;1.88;;
20369;SDS011;10344;47.592;9.600;2022-10-16T16:16:53;3.50;;;1.95;;
20369;SDS011;10344;47.592;9.600;2022-10-16T16:19:19;3.00;;;2.10;;
20369;SDS011;10344;47.592;9.600;2022-10-16T16:21:48;2.47;;;1.85;;
20369;SDS011;10344;47.592;9.600;2022-10-16T16:24:17;2.15;;;1.80;;
20369;SDS011;10344;47.592;9.600;2022-10-16T16:26:45;2.70;;;1.90;;
20369;SDS011;10344;47.592;9.600;2022-10-16T16:29:11;2.30;;;1.70;;
20369;SDS011;10344;47.592;9.600;2022-10-16T16:31:41;1.90;;;1.77;;
20369;SDS011;10344;47.592;9.600;2022-10-16T16:34:07;2.10;;;1.90;;
20369;SDS011;10344;47.592;9.600;2022-10-16T16:36:33;2.10;;;1.90;;
20369;SDS011;10344;47.592;9.600;2022-10-16T16:38:59;2.07;;;1.80;;
20369;SDS011;10344;47.592;9.600;2022-10-16T16:41:26;2.03;;;1.80;;
20369;SDS011;10344;47.592;9.600;2022-10-16T16:43:55;2.35;;;1.90;;
20369;SDS011;10344;47.592;9.600;2022-10-16T16:46:26;1.88;;;1.65;;
20369;SDS011;10344;47.592;9.600;2022-10-16T16:48:52;2.83;;;1.90;;
20369;SDS011;10344;47.592;9.600;2022-10-16T16:51:20;1.90;;;1.80;;
20369;SDS011;10344;47.592;9.600;2022-10-16T16:53:47;3.22;;;2.40;;
20369;SDS011;10344;47.592;9.600;2022-10-16T16:56:15;2.00;;;1.67;;
20369;SDS011;10344;47.592;9.600;2022-10-16T16:58:44;3.35;;;1.85;;
20369;SDS011;10344;47.592;9.600;2022-10-16T17:01:11;2.00;;;1.85;;
20369;SDS011;10344;47.592;9.600;2022-10-16T17:03:41;2.85;;;2.40;;
20369;SDS011;10344;47.592;9.600;2022-10-16T17:06:14;2.53;;;2.20;;
20369;SDS011;10344;47.592;9.600;2022-10-16T17:08:40;3.50;;;2.30;;
20369;SDS011;10344;47.592;9.600;2022-10-16T17:11:06;3.13;;;2.23;;
20369;SDS011;10344;47.592;9.600;2022-10-16T17:13:41;3.90;;;2.20;;
20369;SDS011;10344;47.592;9.600;2022-10-16T17:16:07;4.77;;;2.30;;
20369;SDS011;10344;47.592;9.600;2022-10-16T17:18:36;3.85;;;2.30;;
20369;SDS011;10344;47.592;9.600;2022-10-16T17:21:04;4.47;;;2.60;;
20369;SDS011;10344;47.592;9.600;2022-10-16T17:23:41;3.50;;;2.28;;
20369;SDS011;10344;47.592;9.600;2022-10-16T17:26:13;3.28;;;2.58;;
20369;SDS011;10344;47.592;9.600;2022-10-16T17:28:43;2.78;;;2.33;;
20369;SDS011;10344;47.592;9.600;2022-10-16T17:31:13;4.68;;;2.45;;
20369;SDS011;10344;47.592;9.600;2022-10-16T17:33:58;4.88;;;2.50;;
20369;SDS011;10344;47.592;9.600;2022-10-16T17:36:26;4.88;;;2.78;;
20369;SDS011;10344;47.592;9.600;2022-10-16T17:39:13;4.75;;;3.00;;
20369;SDS011;10344;47.592;9.600;2022-10-16T17:41:59;3.10;;;2.50;;
20369;SDS011;10344;47.592;9.600;2022-10-16T17:53:41;3.05;;;2.42;;
20369;SDS011;10344;47.592;9.600;2022-10-16T17:57:00;2.40;;;2.20;;
20369;SDS011;10344;47.592;9.600;2022-10-16T18:00:07;4.37;;;2.33;;
20369;SDS011;10344;47.592;9.600;2022-10-16T18:11:20;2.85;;;2.35;;
20369;SDS011;10344;47.592;9.600;2022-10-16T18:22:37;2.70;;;2.25;;
20369;SDS011;10344;47.592;9.600;2022-10-16T19:45:05;5.90;;;4.10;;
20369;SDS011;10344;47.592;9.600;2022-10-16T19:48:03;4.93;;;3.40;;
20369;SDS011;10344;47.592;9.600;2022-10-16T19:50:30;5.57;;;4.22;;
20369;SDS011;10344;47.592;9.600;2022-10-16T19:53:09;8.45;;;4.40;;
20369;SDS011;10344;47.592;9.600;2022-10-16T19:55:41;5.67;;;4.53;;
20369;SDS011;10344;47.592;9.600;2022-10-16T19:58:46;4.38;;;3.97;;
20369;SDS011;10344;47.592;9.600;2022-10-16T20:01:27;5.25;;;4.35;;
20369;SDS011;10344;47.592;9.600;2022-10-16T20:04:18;5.55;;;4.88;;
20369;SDS011;10344;47.592;9.600;2022-10-16T20:07:04;4.85;;;4.13;;
20369;SDS011;10344;47.592;9.600;2022-10-16T20:09:46;7.82;;;5.18;;
20369;SDS011;10344;47.592;9.600;2022-10-16T20:12:32;5.47;;;3.95;;
20369;SDS011;10344;47.592;9.600;2022-10-16T20:15:04;4.80;;;3.60;;
20369;SDS011;10344;47.592;9.600;2022-10-16T20:17:32;6.05;;;4.07;;
20369;SDS011;10344;47.592;9.600;2022-10-16T20:20:02;3.88;;;3.20;;
20369;SDS011;10344;47.592;9.600;2022-10-16T20:22:44;4.50;;;3.53;;
20369;SDS011;10344;47.592;9.600;2022-10-16T20:25:39;7.25;;;3.70;;
20369;SDS011;10344;47.592;9.600;2022-10-16T20:28:27;5.85;;;3.88;;
20369;SDS011;10344;47.592;9.600;2022-10-16T20:31:17;4.85;;;3.80;;
20369;SDS011;10344;47.592;9.600;2022-10-16T20:34:22;4.78;;;3.47;;
20369;SDS011;10344;47.592;9.600;2022-10-16T20:37:15;4.20;;;3.30;;
20369;SDS011;10344;47.592;9.600;2022-10-16T20:39:53;4.15;;;3.53;;
20369;SDS011;10344;47.592;9.600;2022-10-16T20:42:20;5.53;;;3.55;;
20369;SDS011;10344;47.592;9.600;2022-10-16T20:45:14;5.03;;;3.53;;
20369;SDS011;10344;47.592;9.600;2022-10-16T20:47:51;2.90;;;2.70;;
20369;SDS011;10344;47.592;9.600;2022-10-16T20:50:18;4.75;;;3.30;;
20369;SDS011;10344;47.592;9.600;2022-10-16T20:52:46;3.27;;;2.97;;
20369;SDS011;10344;47.592;9.600;2022-10-16T20:55:51;5.38;;;3.13;;
20369;SDS011;10344;47.592;9.600;2022-10-16T20:58:39;3.47;;;2.78;;
20369;SDS011;10344;47.592;9.600;2022-10-16T21:01:16;4.90;;;2.72;;
20369;SDS011;10344;47.592;9.600;2022-10-16T21:03:54;3.83;;;2.97;;
20369;SDS011;10344;47.592;9.600;2022-10-16T21:06:25;3.20;;;2.58;;
20369;SDS011;10344;47.592;9.600;2022-10-16T21:09:04;3.10;;;2.38;;
20369;SDS011;10344;47.592;9.600;2022-10-16T21:12:15;5.82;;;2.58;;
20369;SDS011;10344;47.592;9.600;2022-10-16T21:15:19;3.45;;;2.60;;
20369;SDS011;10344;47.592;9.600;2022-10-16T21:18:20;3.70;;;2.50;;
20369;SDS011;10344;47.592;9.600;2022-10-16T21:21:23;2.50;;;2.27;;
20369;SDS011;10344;47.592;9.600;2022-10-16T21:24:04;2.63;;;2.17;;
20369;SDS011;10344;47.592;9.600;2022-10-16T21:26:39;4.18;;;2.50;;
20369;SDS011;10344;47.592;9.600;2022-10-16T21:29:11;4.57;;;2.58;;
20369;SDS011;10344;47.592;9.600;2022-10-16T21:31:39;2.15;;;1.95;;
20369;SDS011;10344;47.592;9.600;2022-10-16T21:34:11;3.70;;;2.33;;
20369;SDS011;10344;47.592;9.600;2022-10-16T21:37:00;3.55;;;2.60;;
20369;SDS011;10344;47.592;9.600;2022-10-16T21:39:44;3.00;;;2.70;;
20369;SDS011;10344;47.592;9.600;2022-10-16T21:42:22;4.35;;;2.55;;
20369;SDS011;10344;47.592;9.600;2022-10-16T21:44:55;4.50;;;2.70;;
20369;SDS011;10344;47.592;9.600;2022-10-16T21:47:21;3.70;;;2.20;;
20369;SDS011;10344;47.592;9.600;2022-10-16T21:49:52;4.35;;;2.55;;
20369;SDS011;10344;47.592;9.600;2022-10-16T21:52:23;2.50;;;2.30;;
20369;SDS011;10344;47.592;9.600;2022-10-16T21:55:19;2.60;;;2.40;;
20369;SDS011;10344;47.592;9.600;2022-10-16T21:57:47;3.78;;;2.30;;
20369;SDS011;10344;47.592;9.600;2022-10-16T22:00:25;4.55;;;2.53;;
20369;SDS011;10344;47.592;9.600;2022-10-16T22:03:05;3.15;;;2.20;;
20369;SDS011;10344;47.592;9.600;2022-10-16T22:05:59;3.35;;;2.50;;
20369;SDS011;10344;47.592;9.600;2022-10-16T22:08:27;2.47;;;2.28;;
20369;SDS011;10344;47.592;9.600;2022-10-16T22:11:13;3.50;;;2.20;;
20369;SDS011;10344;47.592;9.600;2022-10-16T22:14:01;5.00;;;2.47;;
20369;SDS011;10344;47.592;9.600;2022-10-16T22:16:50;4.20;;;2.30;;
20369;SDS011;10344;47.592;9.600;2022-10-16T22:19:46;3.20;;;2.08;;
20369;SDS011;10344;47.592;9.600;2022-10-16T22:22:15;2.40;;;2.20;;
20369;SDS011;10344;47.592;9.600;2022-10-16T22:24:49;2.60;;;2.30;;
20369;SDS011;10344;47.592;9.600;2022-10-16T22:27:45;2.80;;;2.17;;
20369;SDS011;10344;47.592;9.600;2022-10-16T22:30:14;3.58;;;2.10;;
20369;SDS011;10344;47.592;9.600;2022-10-16T22:33:24;2.33;;;2.00;;
20369;SDS011;10344;47.592;9.600;2022-10-16T22:36:37;2.20;;;1.95;;
20369;SDS011;10344;47.592;9.600;2022-10-16T22:39:16;3.30;;;2.20;;
20369;SDS011;10344;47.592;9.600;2022-10-16T22:41:45;2.90;;;2.00;;
20369;SDS011;10344;47.592;9.600;2022-10-16T22:44:23;2.83;;;2.47;;
20369;SDS011;10344;47.592;9.600;2022-10-16T22:47:12;4.65;;;2.20;;
20369;SDS011;10344;47.592;9.600;2022-10-16T22:49:43;2.90;;;2.30;;
20369;SDS011;10344;47.592;9.600;2022-10-16T22:52:31;3.42;;;2.10;;
20369;SDS011;10344;47.592;9.600;2022-10-16T22:54:58;1.73;;;1.63;;
20369;SDS011;10344;47.592;9.600;2022-10-16T22:57:55;3.40;;;2.05;;
20369;SDS011;10344;47.592;9.600;2022-10-16T23:00:27;2.15;;;1.85;;
20369;SDS011;10344;47.592;9.600;2022-10-16T23:03:21;2.28;;;1.73;;
20369;SDS011;10344;47.592;9.600;2022-10-16T23:05:53;3.03;;;1.63;;
20369;SDS011;10344;47.592;9.600;2022-10-16T23:08:34;2.60;;;1.70;;
20369;SDS011;10344;47.592;9.600;2022-10-16T23:14:29;2.40;;;2.00;;
20369;SDS011;10344;47.592;9.600;2022-10-16T23:17:03;1.92;;;1.52;;
20369;SDS011;10344;47.592;9.600;2022-10-16T23:19:38;2.65;;;1.65;;
20369;SDS011;10344;47.592;9.600;2022-10-16T23:22:05;2.33;;;1.90;;
20369;SDS011;10344;47.592;9.600;2022-10-16T23:24:42;2.00;;;1.80;;
20369;SDS011;10344;47.592;9.600;2022-10-16T23:27:40;3.60;;;2.13;;
20369;SDS011;10344;47.592;9.600;2022-10-16T23:30:19;2.10;;;1.90;;
20369;SDS011;10344;47.592;9.600;2022-10-16T23:33:11;1.98;;;1.75;;
20369;SDS011;10344;47.592;9.600;2022-10-16T23:35:49;3.78;;;1.88;;
20369;SDS011;10344;47.592;9.600;2022-10-16T23:38:33;2.03;;;1.83;;
20369;SDS011;10344;47.592;9.600;2022-10-16T23:41:24;3.22;;;1.80;;
20369;SDS011;10344;47.592;9.600;2022-10-16T23:43:59;3.08;;;2.17;;
20369;SDS011;10344;47.592;9.600;2022-10-16T23:46:50;2.75;;;2.20;;
20369;SDS011;10344;47.592;9.600;2022-10-16T23:49:22;2.40;;;2.20;;
20369;SDS011;10344;47.592;9.600;2022-10-16T23:52:18;2.40;;;2.20;;
20369;SDS011;10344;47.592;9.600;2022-10-16T23:55:07;3.35;;;2.45;;
20369;SDS011;10344;47.592;9.600;2022-10-16T23:57:42;3.88;;;2.45;;
